Current Weather

Curtin

Curtin, Australia (YCIN)

Report from: Wednesday, May 29, 2024 8:00 AM UTC
Current time: Wednesday, May 29, 2024 8:25 AM UTC

Nearby weather – Weather history – Daily summaries
Weather forecast

Temperature30.0°C (86.0°F)
Heat index31.0°C (87.7°F)
Dew point18.0°C (64.4°F)
Winds 10 kts (5.1 m/s, 11.5 mph) West-Northwest (300°)
Visibility6.2 mi. (10 km)
Clouds Ceiling: Overcast 11,000 ft. (3,353 m)
Altimeter29.77 in.Hg (1008 mB)
Relative humidity49 %
Density altitude2,177 ft. (664 m)
Remarks Fully automated report
Flight conditions Visual Meteorological Conditions
Raw dataYCIN 290800Z AUTO 30010KT 9999 // OVC110 30/18 Q1008 RF00.0/000.0
An error has occurred. This application may no longer respond until reloaded. Reload 🗙